Time;durP1;ratioP1;P1;durP2;ratioP2;P2;SDS_P1;SDS_P2;PMS_P1;PMS_P2;Temp;Humidity;BMP_temperature;BMP_pressure;BME280_temperature;BME280_humidity;BME280_pressure;Samples;Min_cycle;Max_cycle;Signal;HPM_P1;HPM_P2
2023/11/11 00:02:09;;;;;;;3.87;3.10;;;5.20;51.90;;;;;;5010301;28;20313;-55
2023/11/11 00:04:36;;;;;;;3.10;2.90;;;5.20;52.10;;;;;;5007990;28;20306;-56
2023/11/11 00:07:02;;;;;;;3.20;2.90;;;5.20;51.90;;;;;;5008019;28;20247;-56
2023/11/11 00:09:29;;;;;;;2.83;2.63;;;5.10;52.00;;;;;;5011328;28;20261;-57
2023/11/11 00:11:58;;;;;;;2.90;2.70;;;5.10;52.00;;;;;;5009499;28;20207;-57
2023/11/11 00:14:25;;;;;;;3.30;3.03;;;5.10;52.00;;;;;;5002203;28;20342;-56
2023/11/11 00:16:51;;;;;;;3.03;2.83;;;5.10;52.20;;;;;;5007658;28;20203;-57
2023/11/11 00:19:18;;;;;;;3.47;3.17;;;5.00;52.30;;;;;;5005524;28;20215;-54
2023/11/11 00:21:49;;;;;;;3.43;2.53;;;4.90;52.80;;;;;;5009411;28;20689;-56
2023/11/11 00:24:15;;;;;;;2.93;2.73;;;4.90;53.00;;;;;;5009887;28;20209;-57
2023/11/11 00:26:42;;;;;;;3.23;3.00;;;4.80;53.00;;;;;;5014515;28;20268;-55
2023/11/11 00:29:08;;;;;;;2.70;2.50;;;4.90;52.70;;;;;;5004503;28;20716;-57
2023/11/11 00:31:35;;;;;;;3.23;2.97;;;4.90;52.80;;;;;;5006735;28;20265;-59
2023/11/11 00:34:02;;;;;;;3.47;2.60;;;4.80;52.90;;;;;;5006999;28;20624;-60
2023/11/11 00:36:28;;;;;;;3.30;3.00;;;4.90;52.90;;;;;;5006566;28;20328;-56
2023/11/11 00:38:55;;;;;;;3.00;2.70;;;4.90;52.70;;;;;;5011258;28;20214;-57
2023/11/11 00:41:21;;;;;;;2.93;2.67;;;5.00;52.60;;;;;;5004774;28;20716;-57
2023/11/11 00:43:48;;;;;;;3.43;3.13;;;4.90;52.50;;;;;;5006350;28;20601;-56
2023/11/11 00:46:14;;;;;;;3.13;2.93;;;4.90;52.70;;;;;;5010258;28;20325;-56
2023/11/11 00:48:41;;;;;;;3.00;2.70;;;4.80;53.00;;;;;;5006312;28;20294;-54
2023/11/11 00:51:08;;;;;;;2.90;2.70;;;4.90;52.90;;;;;;5002088;28;20202;-59
2023/11/11 00:53:34;;;;;;;3.20;2.90;;;4.90;53.00;;;;;;5006420;28;20293;-57
2023/11/11 00:56:01;;;;;;;2.90;2.70;;;5.00;52.70;;;;;;5004635;28;20662;-52
2023/11/11 00:58:27;;;;;;;3.57;3.17;;;5.00;52.70;;;;;;5010314;28;20209;-55
2023/11/11 01:00:54;;;;;;;2.87;2.67;;;5.00;52.60;;;;;;5003185;28;20301;-53
2023/11/11 01:03:20;;;;;;;4.20;3.00;;;5.00;52.60;;;;;;5008726;28;20242;-58
2023/11/11 01:05:47;;;;;;;4.60;2.53;;;5.10;53.20;;;;;;5006280;28;20312;-55
2023/11/11 01:08:13;;;;;;;3.20;2.80;;;5.10;52.40;;;;;;5003708;28;20741;-56
2023/11/11 01:10:40;;;;;;;2.97;2.80;;;5.10;52.40;;;;;;5004509;28;20289;-56
2023/11/11 01:13:06;;;;;;;3.20;2.83;;;5.20;52.30;;;;;;5006657;28;20210;-57
2023/11/11 01:15:33;;;;;;;2.50;2.30;;;5.30;51.70;;;;;;5004677;28;20309;-57
2023/11/11 01:17:59;;;;;;;3.13;2.83;;;5.50;50.70;;;;;;5003603;28;20651;-59
2023/11/11 01:20:26;;;;;;;2.90;2.67;;;5.60;50.20;;;;;;5002849;28;20730;-58
2023/11/11 01:22:52;;;;;;;2.93;2.67;;;5.50;50.70;;;;;;5012353;28;20233;-54
2023/11/11 01:25:21;;;;;;;3.20;2.90;;;5.50;50.90;;;;;;5003420;28;20230;-52
2023/11/11 01:27:47;;;;;;;3.20;2.60;;;5.40;51.50;;;;;;5004970;28;20212;-56
2023/11/11 01:30:14;;;;;;;3.70;3.40;;;5.40;52.30;;;;;;5004497;28;20260;-57
2023/11/11 01:32:40;;;;;;;3.20;3.00;;;5.50;52.80;;;;;;5008209;28;20203;-57
2023/11/11 01:35:07;;;;;;;3.03;2.83;;;5.30;53.10;;;;;;5001775;28;20314;-55
2023/11/11 01:37:34;;;;;;;3.00;2.80;;;5.30;53.70;;;;;;5010132;28;20298;-53
2023/11/11 01:40:01;;;;;;;3.27;2.80;;;5.30;53.70;;;;;;5003568;28;20207;-56
2023/11/11 01:42:27;;;;;;;2.87;2.67;;;5.20;53.90;;;;;;5005371;28;20309;-55
2023/11/11 01:44:55;;;;;;;2.33;2.23;;;5.30;53.20;;;;;;5001016;28;20233;-55
2023/11/11 01:47:21;;;;;;;2.80;2.60;;;5.40;53.50;;;;;;5006048;28;20616;-56
2023/11/11 01:49:48;;;;;;;3.37;2.53;;;5.40;53.30;;;;;;5002920;28;20294;-54
2023/11/11 01:52:14;;;;;;;2.43;2.27;;;5.40;53.50;;;;;;5002346;28;20298;-56
2023/11/11 01:54:41;;;;;;;2.20;2.10;;;5.50;53.60;;;;;;5003123;28;20230;-55
2023/11/11 01:57:07;;;;;;;2.23;2.13;;;5.50;53.60;;;;;;5003768;28;20211;-57
2023/11/11 01:59:34;;;;;;;2.00;1.90;;;5.60;53.60;;;;;;5009876;28;20295;-54
2023/11/11 02:02:00;;;;;;;1.80;1.80;;;5.70;53.60;;;;;;5008546;28;20308;-55
2023/11/11 02:04:27;;;;;;;2.30;2.20;;;5.70;53.50;;;;;;5001820;28;20210;-52
2023/11/11 02:06:54;;;;;;;2.07;1.97;;;5.70;54.00;;;;;;5001870;28;20635;-57
2023/11/11 02:09:22;;;;;;;1.90;1.80;;;5.80;53.40;;;;;;5009411;28;20211;-56
2023/11/11 02:11:49;;;;;;;2.20;2.10;;;5.80;54.30;;;;;;5011068;28;20223;-57
2023/11/11 02:14:16;;;;;;;1.90;1.80;;;5.80;55.40;;;;;;5007151;28;20222;-59
2023/11/11 02:16:42;;;;;;;2.00;1.90;;;5.70;55.80;;;;;;5009916;28;20207;-57
2023/11/11 02:19:09;;;;;;;2.33;2.13;;;5.70;55.60;;;;;;5006724;28;20199;-59
2023/11/11 02:21:35;;;;;;;1.90;1.80;;;5.70;56.80;;;;;;5001586;28;20699;-53
2023/11/11 02:24:02;;;;;;;3.20;2.10;;;5.80;57.60;;;;;;5004200;28;20343;-56
2023/11/11 02:26:28;;;;;;;2.17;2.03;;;5.70;57.60;;;;;;5009509;28;20226;-58
2023/11/11 02:28:55;;;;;;;2.10;2.00;;;5.70;58.20;;;;;;5003238;28;20310;-58
2023/11/11 02:31:21;;;;;;;1.80;1.80;;;5.60;58.30;;;;;;5011032;28;20265;-55
2023/11/11 02:33:48;;;;;;;1.83;1.73;;;5.60;59.50;;;;;;5004451;28;20242;-55
2023/11/11 02:36:14;;;;;;;2.60;2.50;;;5.60;59.50;;;;;;5001786;28;20732;-57
2023/11/11 02:38:41;;;;;;;1.97;1.87;;;5.60;60.10;;;;;;5010445;28;20290;-59
2023/11/11 02:41:07;;;;;;;2.10;2.00;;;5.60;60.60;;;;;;5007914;28;20681;-54
2023/11/11 02:43:34;;;;;;;1.80;1.80;;;5.70;60.70;;;;;;4999356;28;20289;-53
2023/11/11 02:46:00;;;;;;;2.67;1.87;;;5.70;60.60;;;;;;5005117;28;20311;-56
2023/11/11 02:48:28;;;;;;;1.80;1.70;;;5.70;59.90;;;;;;5002401;28;20208;-53
2023/11/11 02:50:54;;;;;;;2.00;1.90;;;5.60;60.00;;;;;;5004778;28;20204;-56
2023/11/11 02:53:21;;;;;;;2.60;2.13;;;5.70;60.90;;;;;;5013892;28;20290;-55
2023/11/11 02:55:47;;;;;;;2.00;1.90;;;5.70;59.60;;;;;;5012047;28;20321;-56
2023/11/11 02:58:13;;;;;;;2.00;1.90;;;5.70;59.80;;;;;;5010313;28;20864;-56
2023/11/11 03:00:40;;;;;;;1.90;1.80;;;5.80;59.70;;;;;;5006954;28;20294;-57
2023/11/11 03:03:08;;;;;;;2.17;2.07;;;5.80;59.70;;;;;;5006336;28;20634;-59
2023/11/11 03:05:34;;;;;;;1.97;1.87;;;5.80;59.70;;;;;;5008625;28;20241;-59
2023/11/11 03:08:01;;;;;;;1.90;1.80;;;5.80;60.30;;;;;;5008856;28;20298;-53
2023/11/11 03:10:27;;;;;;;1.80;1.70;;;5.80;59.50;;;;;;5006701;28;20253;-54
2023/11/11 03:12:54;;;;;;;1.83;1.73;;;6.00;59.50;;;;;;5007460;28;20282;-54
2023/11/11 03:15:21;;;;;;;1.60;1.60;;;6.00;59.00;;;;;;5004405;28;20314;-60
2023/11/11 03:17:48;;;;;;;1.70;1.70;;;6.00;59.20;;;;;;5012338;28;22009;-59
2023/11/11 03:20:15;;;;;;;1.80;1.70;;;6.10;59.20;;;;;;5005832;28;20306;-58
2023/11/11 03:22:41;;;;;;;1.60;1.60;;;6.10;59.30;;;;;;5012201;28;20347;-57
2023/11/11 03:25:08;;;;;;;1.73;1.63;;;6.10;59.20;;;;;;5002997;28;20285;-53
2023/11/11 03:27:35;;;;;;;1.80;1.70;;;6.20;58.90;;;;;;5007045;28;20214;-57
2023/11/11 03:30:01;;;;;;;1.70;1.70;;;6.10;58.90;;;;;;5011409;28;20667;-60
2023/11/11 03:32:29;;;;;;;2.00;1.80;;;6.20;59.10;;;;;;5008473;28;20294;-56
2023/11/11 03:34:55;;;;;;;1.70;1.70;;;6.10;59.10;;;;;;5002117;28;20223;-52
2023/11/11 03:37:21;;;;;;;1.70;1.70;;;6.10;59.10;;;;;;5011579;28;20253;-56
2023/11/11 03:39:48;;;;;;;1.93;1.77;;;6.20;58.80;;;;;;5013200;28;20294;-57
2023/11/11 03:42:14;;;;;;;1.77;1.57;;;6.20;58.90;;;;;;5006202;28;20211;-56
2023/11/11 03:44:41;;;;;;;1.70;1.70;;;6.20;58.90;;;;;;5005054;28;20310;-57
2023/11/11 03:47:07;;;;;;;1.67;1.57;;;6.20;58.90;;;;;;5011646;28;20305;-56
2023/11/11 03:49:34;;;;;;;1.80;1.70;;;6.10;58.90;;;;;;5007344;28;20797;-56
2023/11/11 03:52:00;;;;;;;1.50;1.50;;;6.10;59.10;;;;;;5010252;28;20315;-57
2023/11/11 03:54:27;;;;;;;1.70;1.70;;;6.10;58.90;;;;;;5004813;28;20303;-57
2023/11/11 03:56:53;;;;;;;1.60;1.60;;;6.00;58.80;;;;;;5011473;28;20566;-58
2023/11/11 03:59:20;;;;;;;1.77;1.77;;;6.00;59.10;;;;;;5005846;28;20294;-53
2023/11/11 04:01:46;;;;;;;1.40;1.40;;;6.00;59.00;;;;;;5007117;28;20294;-56
2023/11/11 04:04:13;;;;;;;1.70;1.70;;;6.00;59.40;;;;;;5005342;28;20695;-56
2023/11/11 04:06:40;;;;;;;1.90;1.80;;;5.90;59.20;;;;;;5011925;28;20298;-53
2023/11/11 04:09:06;;;;;;;1.60;1.60;;;6.00;59.20;;;;;;5004685;28;20702;-57
2023/11/11 04:11:34;;;;;;;1.70;1.70;;;6.00;59.20;;;;;;5011983;28;20238;-58
2023/11/11 04:14:02;;;;;;;1.60;1.60;;;5.90;59.00;;;;;;5004360;28;20208;-54
2023/11/11 04:16:29;;;;;;;2.03;1.93;;;6.00;58.80;;;;;;5000215;28;20222;-59
2023/11/11 04:18:56;;;;;;;1.60;1.50;;;6.00;58.60;;;;;;5004407;28;20266;-57
2023/11/11 04:21:22;;;;;;;1.70;1.70;;;6.00;58.80;;;;;;5008086;28;20634;-58
2023/11/11 04:23:49;;;;;;;1.60;1.60;;;6.00;58.60;;;;;;5005653;28;20255;-56
2023/11/11 04:26:15;;;;;;;1.70;1.70;;;6.00;58.60;;;;;;5002539;28;20254;-56
2023/11/11 04:28:43;;;;;;;1.77;1.77;;;6.10;58.40;;;;;;5007300;28;20303;-57
2023/11/11 04:31:10;;;;;;;1.70;1.60;;;6.10;58.40;;;;;;5009848;28;20238;-57
2023/11/11 04:33:37;;;;;;;1.67;1.67;;;6.10;58.40;;;;;;5001049;28;20579;-56
2023/11/11 04:36:03;;;;;;;1.70;1.70;;;6.10;58.10;;;;;;4996606;28;20314;-56
2023/11/11 04:38:30;;;;;;;1.80;1.70;;;6.20;58.10;;;;;;5010314;28;20275;-57
2023/11/11 04:40:56;;;;;;;1.90;1.80;;;6.10;58.60;;;;;;5010471;28;20234;-58
2023/11/11 04:43:23;;;;;;;1.60;1.60;;;6.00;58.50;;;;;;5004586;28;20314;-56
2023/11/11 04:45:49;;;;;;;2.00;1.90;;;6.00;58.70;;;;;;5003437;28;20257;-54
2023/11/11 04:48:16;;;;;;;1.60;1.60;;;6.00;58.90;;;;;;5011340;28;20294;-57
2023/11/11 04:50:43;;;;;;;1.60;1.60;;;6.00;59.30;;;;;;5005366;28;20282;-56
2023/11/11 04:53:09;;;;;;;1.80;1.80;;;6.10;59.30;;;;;;5003965;28;20222;-59
2023/11/11 04:55:36;;;;;;;1.70;1.70;;;6.10;59.30;;;;;;5007003;28;20322;-57
2023/11/11 04:58:03;;;;;;;1.93;1.70;;;6.20;59.00;;;;;;5011204;28;20214;-56
2023/11/11 05:00:30;;;;;;;1.80;1.70;;;6.20;59.30;;;;;;5003898;28;20211;-57
2023/11/11 05:02:56;;;;;;;1.53;1.50;;;6.10;59.70;;;;;;5004539;28;20263;-57
2023/11/11 05:05:23;;;;;;;1.80;1.70;;;6.10;59.50;;;;;;5003887;28;20306;-55
2023/11/11 05:07:50;;;;;;;1.80;1.70;;;6.10;60.00;;;;;;5011250;28;20214;-60
2023/11/11 05:10:17;;;;;;;1.70;1.70;;;6.10;60.00;;;;;;4997316;28;20262;-56
2023/11/11 05:12:47;;;;;;;1.70;1.70;;;6.10;59.90;;;;;;5004992;28;20207;-54
2023/11/11 05:15:15;;;;;;;1.70;1.70;;;6.20;60.00;;;;;;5003022;28;20233;-57
2023/11/11 05:17:41;;;;;;;1.77;1.77;;;6.30;59.60;;;;;;5011446;28;20206;-53
2023/11/11 05:20:10;;;;;;;1.80;1.70;;;6.30;59.60;;;;;;5009501;28;20230;-56
2023/11/11 05:22:37;;;;;;;1.63;1.63;;;6.30;59.90;;;;;;5007793;28;20266;-57
2023/11/11 05:25:03;;;;;;;1.80;1.70;;;6.40;59.50;;;;;;5007005;28;20318;-54
2023/11/11 05:27:30;;;;;;;1.77;1.67;;;6.40;58.90;;;;;;5006575;28;20214;-57
2023/11/11 05:29:57;;;;;;;1.70;1.70;;;6.50;58.60;;;;;;5005398;28;20207;-57
2023/11/11 05:32:23;;;;;;;1.90;1.80;;;6.50;58.20;;;;;;5008539;28;20212;-55
2023/11/11 05:34:50;;;;;;;1.70;1.60;;;6.50;58.10;;;;;;5006393;28;20302;-54
2023/11/11 05:37:17;;;;;;;2.00;1.90;;;6.50;58.40;;;;;;5009375;28;20210;-58
2023/11/11 05:39:44;;;;;;;1.83;1.80;;;6.60;58.90;;;;;;5010437;28;20294;-57
2023/11/11 05:42:11;;;;;;;1.77;1.67;;;6.50;59.00;;;;;;5008460;28;20625;-61
2023/11/11 05:44:37;;;;;;;2.10;2.00;;;6.50;59.60;;;;;;5003702;28;20250;-60
2023/11/11 05:47:04;;;;;;;1.90;1.80;;;6.50;59.70;;;;;;5007923;28;20293;-56
2023/11/11 05:49:30;;;;;;;2.10;2.00;;;6.60;59.50;;;;;;5000084;28;20656;-54
2023/11/11 05:51:57;;;;;;;2.13;2.03;;;6.60;59.20;;;;;;5006572;28;20246;-56
2023/11/11 05:54:23;;;;;;;1.80;1.70;;;6.60;59.60;;;;;;5009001;28;20286;-55
2023/11/11 05:56:50;;;;;;;2.10;2.00;;;6.60;60.10;;;;;;5009560;28;20239;-55
2023/11/11 05:59:16;;;;;;;2.10;2.00;;;6.60;60.10;;;;;;5006996;28;20294;-56
2023/11/11 06:01:43;;;;;;;2.40;2.20;;;6.60;60.40;;;;;;5004350;28;20211;-54
2023/11/11 06:04:09;;;;;;;2.20;2.10;;;6.60;60.40;;;;;;5006527;28;20309;-56
2023/11/11 06:06:36;;;;;;;2.53;2.20;;;6.60;60.50;;;;;;5010802;28;20739;-55
2023/11/11 06:09:03;;;;;;;2.17;2.07;;;6.60;61.00;;;;;;5003278;28;20287;-57
2023/11/11 06:11:30;;;;;;;2.00;1.90;;;6.50;61.60;;;;;;5008397;28;20250;-57
2023/11/11 06:13:56;;;;;;;2.30;2.20;;;6.50;62.20;;;;;;5003675;28;20778;-55
2023/11/11 06:16:23;;;;;;;2.63;2.43;;;6.50;62.70;;;;;;5009154;28;20324;-58
2023/11/11 06:18:52;;;;;;;2.30;2.20;;;6.40;62.40;;;;;;4999133;28;20565;-57
2023/11/11 06:21:18;;;;;;;2.20;2.10;;;6.40;62.60;;;;;;5003884;28;20207;-57
2023/11/11 06:23:45;;;;;;;2.40;2.30;;;6.40;63.10;;;;;;5006005;28;20315;-55
2023/11/11 06:26:11;;;;;;;2.40;2.30;;;6.30;63.60;;;;;;5010720;28;20652;-56
2023/11/11 06:28:38;;;;;;;2.37;2.23;;;6.20;63.30;;;;;;5013524;28;20281;-57
2023/11/11 06:31:04;;;;;;;3.07;2.10;;;6.30;64.30;;;;;;5013111;28;20253;-54
2023/11/11 06:33:31;;;;;;;2.27;2.17;;;6.30;64.10;;;;;;5011659;28;20199;-55
2023/11/11 06:35:58;;;;;;;2.27;2.17;;;6.30;63.40;;;;;;5006742;28;20223;-57
2023/11/11 06:38:25;;;;;;;2.53;2.33;;;6.30;62.60;;;;;;5011309;28;20306;-54
2023/11/11 06:40:51;;;;;;;2.27;2.17;;;6.30;62.60;;;;;;5007259;28;20297;-57
2023/11/11 06:43:18;;;;;;;2.50;2.30;;;6.40;62.40;;;;;;5006395;28;20600;-60
2023/11/11 06:45:45;;;;;;;2.40;2.30;;;6.40;62.10;;;;;;5003302;28;20235;-55
2023/11/11 06:48:12;;;;;;;2.50;2.40;;;6.40;61.70;;;;;;5004259;28;20226;-55
2023/11/11 06:50:38;;;;;;;2.40;2.20;;;6.40;60.50;;;;;;5002734;28;20261;-56
2023/11/11 06:53:05;;;;;;;2.20;2.10;;;6.50;59.00;;;;;;4998580;28;20214;-57
2023/11/11 06:55:34;;;;;;;2.40;2.20;;;6.50;57.80;;;;;;5003864;28;20242;-57
2023/11/11 06:58:00;;;;;;;2.83;2.57;;;6.50;57.60;;;;;;5006758;28;20207;-53
2023/11/11 07:00:27;;;;;;;2.20;2.00;;;6.60;57.40;;;;;;5011312;28;20298;-56
2023/11/11 07:02:59;;;;;;;2.10;2.00;;;6.70;57.20;;;;;;5014022;28;20199;-58
2023/11/11 07:05:25;;;;;;;2.10;2.00;;;6.60;56.20;;;;;;5005880;28;20318;-60
2023/11/11 07:07:52;;;;;;;2.20;2.00;;;6.70;56.10;;;;;;5003916;28;20211;-59
2023/11/11 07:10:21;;;;;;;9.23;2.80;;;6.70;55.40;;;;;;5004141;28;20296;-56
2023/11/11 07:12:47;;;;;;;2.40;1.90;;;6.80;55.00;;;;;;5002166;28;20210;-59
2023/11/11 07:15:15;;;;;;;2.03;1.70;;;6.80;54.20;;;;;;5005394;28;20728;-57
2023/11/11 07:17:42;;;;;;;2.63;2.40;;;6.90;53.60;;;;;;5007173;28;20204;-58
2023/11/11 07:20:10;;;;;;;2.30;2.10;;;6.90;54.30;;;;;;5009050;28;20210;-55
2023/11/11 07:22:37;;;;;;;2.20;2.10;;;7.00;54.70;;;;;;5004685;28;20214;-59
2023/11/11 07:25:03;;;;;;;2.07;1.97;;;6.90;54.80;;;;;;5002400;28;20616;-57
2023/11/11 07:27:30;;;;;;;2.03;1.90;;;6.90;54.10;;;;;;5004328;28;20284;-59
2023/11/11 07:29:56;;;;;;;2.50;2.30;;;7.00;54.10;;;;;;4997254;28;20701;-59
2023/11/11 07:32:23;;;;;;;2.40;2.20;;;7.00;54.30;;;;;;4999369;28;20302;-56
2023/11/11 07:34:49;;;;;;;2.17;2.00;;;7.10;54.10;;;;;;4994709;28;20224;-56
2023/11/11 07:37:17;;;;;;;2.40;2.30;;;7.10;54.20;;;;;;5003393;28;20229;-55
2023/11/11 07:39:43;;;;;;;2.53;2.23;;;7.00;54.30;;;;;;4999003;28;20208;-54
2023/11/11 07:42:09;;;;;;;2.10;2.00;;;7.00;54.40;;;;;;5006123;28;20211;-53
2023/11/11 07:44:36;;;;;;;5.43;2.40;;;7.00;54.40;;;;;;4998114;28;20686;-56
2023/11/11 07:47:06;;;;;;;2.87;2.40;;;7.10;54.40;;;;;;4998410;28;20208;-58
2023/11/11 07:49:33;;;;;;;3.30;2.43;;;7.10;54.20;;;;;;4997957;28;20558;-57
2023/11/11 07:52:01;;;;;;;2.37;2.27;;;7.00;53.40;;;;;;4995053;28;20255;-61
2023/11/11 07:54:28;;;;;;;2.47;2.33;;;7.10;52.80;;;;;;5002356;28;20200;-60
2023/11/11 07:56:55;;;;;;;2.40;2.30;;;7.10;53.00;;;;;;5009092;28;20209;-58
2023/11/11 07:59:22;;;;;;;2.40;2.30;;;7.10;53.00;;;;;;5003064;28;20212;-61
2023/11/11 08:01:49;;;;;;;2.37;2.23;;;7.10;53.00;;;;;;4999356;28;20277;-54
2023/11/11 08:04:15;;;;;;;2.50;2.30;;;7.20;52.60;;;;;;5005497;28;20361;-54
2023/11/11 08:06:43;;;;;;;2.13;2.03;;;9.60;55.50;;;;;;5008419;28;20293;-55
2023/11/11 08:09:10;;;;;;;2.30;2.10;;;8.60;48.50;;;;;;4989430;28;20205;-71
2023/11/11 08:11:36;;;;;;;2.67;2.00;;;8.20;49.10;;;;;;4998375;28;20227;-66
2023/11/11 08:14:04;;;;;;;2.13;2.03;;;7.90;50.40;;;;;;5001484;28;20209;-58
2023/11/11 08:16:30;;;;;;;2.83;2.57;;;7.70;50.30;;;;;;5009216;28;20233;-63
2023/11/11 08:18:57;;;;;;;2.00;1.90;;;7.60;50.30;;;;;;5009749;28;20213;-60
2023/11/11 08:21:29;;;;;;;2.20;2.10;;;7.80;49.70;;;;;;5009316;28;20260;-57
2023/11/11 08:23:55;;;;;;;2.60;2.40;;;7.90;49.20;;;;;;5008356;28;20634;-57
2023/11/11 08:26:22;;;;;;;2.67;2.47;;;7.70;48.90;;;;;;4993360;28;20279;-67
2023/11/11 08:28:48;;;;;;;2.40;2.20;;;8.00;49.10;;;;;;5000693;28;20208;-57
2023/11/11 08:31:15;;;;;;;2.20;2.00;;;8.10;48.40;;;;;;5005262;28;20264;-58
2023/11/11 08:33:41;;;;;;;2.50;2.23;;;8.20;47.50;;;;;;5004560;28;20294;-60
2023/11/11 08:36:08;;;;;;;2.13;2.03;;;8.20;48.40;;;;;;4998910;28;20226;-58
2023/11/11 08:38:35;;;;;;;2.40;2.20;;;8.10;47.50;;;;;;5002895;28;20696;-65
2023/11/11 08:41:02;;;;;;;2.00;1.90;;;7.90;48.20;;;;;;4993420;28;20731;-63
2023/11/11 08:43:28;;;;;;;2.10;2.00;;;7.90;47.50;;;;;;5003942;28;20645;-60
2023/11/11 08:45:55;;;;;;;2.23;2.10;;;7.90;47.50;;;;;;5004182;28;20329;-58
2023/11/11 08:48:22;;;;;;;2.80;2.60;;;7.80;48.00;;;;;;5000734;28;20205;-60
2023/11/11 08:50:48;;;;;;;2.23;2.13;;;7.80;47.60;;;;;;5008399;28;20211;-61
2023/11/11 08:53:15;;;;;;;2.87;2.67;;;7.90;47.70;;;;;;5007955;28;20288;-57
2023/11/11 08:55:41;;;;;;;2.10;2.00;;;7.90;46.80;;;;;;5004369;28;20234;-58
2023/11/11 08:58:08;;;;;;;2.07;1.97;;;7.90;46.20;;;;;;5004240;28;20206;-58
2023/11/11 09:00:35;;;;;;;2.10;2.00;;;8.10;46.10;;;;;;5011992;28;20218;-60
2023/11/11 09:03:04;;;;;;;1.90;1.80;;;8.50;45.20;;;;;;4997980;28;20209;-59
2023/11/11 09:05:30;;;;;;;2.20;2.00;;;8.20;45.30;;;;;;4999721;28;20238;-58
2023/11/11 09:07:56;;;;;;;2.50;1.90;;;8.30;45.10;;;;;;5007705;28;20276;-57
2023/11/11 09:10:23;;;;;;;2.77;1.80;;;8.90;44.20;;;;;;5009558;28;20314;-61
2023/11/11 09:12:50;;;;;;;2.20;1.77;;;9.30;43.40;;;;;;5002541;28;20247;-57
2023/11/11 09:15:17;;;;;;;5.17;2.10;;;8.80;43.90;;;;;;5002934;28;20230;-56
2023/11/11 09:17:43;;;;;;;1.60;1.50;;;9.40;43.70;;;;;;5003064;28;20290;-59
2023/11/11 09:20:10;;;;;;;2.03;1.93;;;9.30;42.50;;;;;;5008055;28;20637;-64
2023/11/11 09:22:36;;;;;;;4.33;1.70;;;9.70;42.30;;;;;;5006886;28;20210;-57
2023/11/11 09:25:03;;;;;;;4.97;1.93;;;10.10;40.20;;;;;;5011244;28;20661;-59
2023/11/11 09:27:29;;;;;;;1.70;1.47;;;10.60;40.40;;;;;;5009290;28;20505;-57
2023/11/11 09:29:56;;;;;;;2.90;1.53;;;11.00;38.70;;;;;;5010068;28;20301;-58
2023/11/11 09:32:22;;;;;;;1.57;1.47;;;11.00;39.40;;;;;;5002485;28;20292;-56
2023/11/11 09:34:49;;;;;;;1.83;1.40;;;10.70;38.10;;;;;;5011031;28;20236;-56
2023/11/11 09:37:15;;;;;;;2.37;1.50;;;9.80;40.70;;;;;;5002823;28;20334;-56
2023/11/11 09:39:42;;;;;;;1.57;1.40;;;9.40;41.20;;;;;;5004958;28;20294;-56
2023/11/11 09:42:08;;;;;;;1.50;1.40;;;9.50;41.40;;;;;;5003634;28;20298;-52
2023/11/11 09:44:35;;;;;;;1.40;1.30;;;10.10;40.00;;;;;;5001697;28;20680;-55
2023/11/11 09:47:01;;;;;;;1.77;1.67;;;11.10;38.60;;;;;;5010086;28;20293;-59
2023/11/11 09:49:28;;;;;;;2.23;1.50;;;11.60;37.10;;;;;;5010238;28;20239;-54
2023/11/11 09:51:54;;;;;;;1.60;1.50;;;10.60;39.90;;;;;;5009346;28;20290;-56
2023/11/11 09:54:21;;;;;;;2.20;1.57;;;10.60;39.50;;;;;;5002973;28;20238;-60
2023/11/11 09:56:47;;;;;;;2.37;1.60;;;12.00;36.80;;;;;;4996651;28;20664;-59
2023/11/11 09:59:14;;;;;;;2.20;1.57;;;12.40;35.60;;;;;;5003862;28;20306;-59
2023/11/11 10:01:40;;;;;;;1.60;1.47;;;12.20;34.80;;;;;;5011290;28;20319;-58
2023/11/11 10:04:07;;;;;;;1.70;1.50;;;12.00;35.80;;;;;;5012989;28;20280;-58
2023/11/11 10:06:33;;;;;;;1.93;1.70;;;12.10;36.40;;;;;;5011101;28;20315;-60
2023/11/11 10:09:00;;;;;;;1.70;1.60;;;11.40;36.50;;;;;;5005398;28;20306;-56
2023/11/11 10:11:26;;;;;;;1.50;1.40;;;11.10;37.40;;;;;;5012934;28;20296;-56
2023/11/11 10:13:54;;;;;;;2.40;1.40;;;11.20;37.40;;;;;;5005423;28;20210;-55
2023/11/11 10:16:21;;;;;;;1.60;1.50;;;10.50;38.80;;;;;;5009899;28;20309;-57
2023/11/11 10:18:48;;;;;;;1.80;1.60;;;11.50;37.30;;;;;;5008191;28;20217;-59
2023/11/11 10:21:16;;;;;;;1.83;1.60;;;10.40;38.30;;;;;;5005367;28;20291;-56
2023/11/11 10:23:44;;;;;;;2.00;1.90;;;10.00;39.30;;;;;;5009226;28;20297;-58
2023/11/11 10:26:11;;;;;;;2.87;1.70;;;9.90;40.80;;;;;;5012240;28;20237;-56
2023/11/11 10:28:37;;;;;;;2.37;1.70;;;9.60;40.70;;;;;;5010757;28;20297;-57
2023/11/11 10:31:04;;;;;;;1.70;1.60;;;9.50;41.30;;;;;;5005484;28;20210;-55
2023/11/11 10:33:30;;;;;;;2.93;1.90;;;9.40;41.40;;;;;;5003208;28;20880;-56
2023/11/11 10:35:57;;;;;;;1.80;1.70;;;9.30;41.20;;;;;;5004193;28;20304;-56
2023/11/11 10:38:23;;;;;;;1.93;1.83;;;9.10;41.50;;;;;;5008588;28;20300;-57
2023/11/11 10:40:50;;;;;;;2.20;1.90;;;8.90;41.90;;;;;;4993006;28;20210;-61
2023/11/11 10:43:16;;;;;;;2.23;2.00;;;9.40;41.50;;;;;;5002568;28;20206;-59
2023/11/11 10:45:43;;;;;;;2.50;1.63;;;9.60;40.60;;;;;;5000997;28;20314;-57
2023/11/11 10:48:09;;;;;;;2.40;1.63;;;9.10;41.40;;;;;;4993707;28;20270;-59
2023/11/11 10:50:36;;;;;;;1.90;1.80;;;9.10;41.80;;;;;;5009526;28;20235;-59
2023/11/11 10:53:02;;;;;;;1.80;1.70;;;8.90;42.10;;;;;;5006065;28;20250;-56
2023/11/11 10:55:29;;;;;;;2.50;1.70;;;8.80;42.70;;;;;;5008929;28;20270;-57
2023/11/11 10:57:55;;;;;;;2.00;1.90;;;8.90;42.80;;;;;;5009036;28;20254;-54
2023/11/11 11:00:24;;;;;;;2.40;2.20;;;8.90;43.10;;;;;;5006488;28;20874;-58
2023/11/11 11:02:50;;;;;;;2.00;1.90;;;8.80;43.30;;;;;;5011597;28;20210;-56
2023/11/11 11:05:17;;;;;;;2.10;2.00;;;8.70;43.90;;;;;;5011038;28;20671;-57
2023/11/11 11:07:43;;;;;;;2.30;2.10;;;8.70;44.40;;;;;;4996037;28;20309;-56
2023/11/11 11:10:11;;;;;;;2.03;1.93;;;8.60;44.40;;;;;;5003418;28;20509;-58
2023/11/11 11:12:38;;;;;;;2.10;1.90;;;8.40;44.00;;;;;;5014513;28;20240;-59
2023/11/11 11:15:06;;;;;;;3.33;2.00;;;8.40;44.10;;;;;;5015919;28;20824;-59
2023/11/11 11:17:32;;;;;;;2.33;1.87;;;8.50;44.20;;;;;;5010723;28;20309;-58
2023/11/11 11:20:00;;;;;;;2.50;2.30;;;8.60;45.00;;;;;;4998919;28;20355;-60
2023/11/11 11:22:26;;;;;;;2.20;2.10;;;9.00;42.80;;;;;;5007243;28;20688;-56
2023/11/11 11:24:53;;;;;;;2.13;1.90;;;9.00;42.70;;;;;;4994950;28;20322;-58
2023/11/11 11:27:20;;;;;;;2.60;2.07;;;10.20;39.40;;;;;;5004933;28;20217;-60
2023/11/11 11:29:46;;;;;;;2.10;2.00;;;9.20;42.20;;;;;;5007249;28;20277;-62
2023/11/11 11:32:13;;;;;;;2.37;1.87;;;8.90;43.30;;;;;;4998732;28;20310;-56
2023/11/11 11:34:39;;;;;;;2.17;2.03;;;8.80;43.40;;;;;;5008682;28;20261;-60
2023/11/11 11:37:06;;;;;;;2.03;1.90;;;8.70;44.00;;;;;;4992836;28;20235;-58
2023/11/11 11:39:33;;;;;;;2.07;1.97;;;8.70;43.40;;;;;;5004471;28;20211;-53
2023/11/11 11:41:59;;;;;;;2.10;1.90;;;8.90;43.20;;;;;;5009507;28;20625;-57
2023/11/11 11:44:26;;;;;;;2.03;1.93;;;9.30;42.30;;;;;;5007574;28;20314;-56
2023/11/11 11:46:52;;;;;;;3.83;1.90;;;9.00;42.80;;;;;;4993460;28;20275;-60
2023/11/11 11:49:19;;;;;;;1.97;1.87;;;8.80;43.40;;;;;;4999930;28;20214;-56
2023/11/11 11:51:45;;;;;;;2.50;2.30;;;9.00;43.00;;;;;;5004502;28;20299;-63
2023/11/11 11:54:12;;;;;;;4.37;2.00;;;10.50;40.10;;;;;;5010265;28;20207;-57
2023/11/11 11:56:38;;;;;;;1.90;1.80;;;9.90;40.80;;;;;;5002364;28;20319;-61
2023/11/11 11:59:06;;;;;;;2.00;1.90;;;9.60;42.60;;;;;;5006401;28;20241;-58
2023/11/11 12:01:34;;;;;;;1.90;1.80;;;11.00;39.60;;;;;;5006292;28;20210;-60
2023/11/11 12:04:00;;;;;;;1.70;1.60;;;10.40;39.20;;;;;;5010592;28;20213;-55
2023/11/11 12:06:27;;;;;;;1.97;1.87;;;10.20;38.90;;;;;;5009527;28;20226;-61
2023/11/11 12:08:54;;;;;;;3.20;2.20;;;10.50;38.70;;;;;;4973485;28;20584;-60
2023/11/11 12:11:21;;;;;;;1.67;1.57;;;12.10;36.70;;;;;;4976452;28;20221;-56
2023/11/11 12:13:47;;;;;;;1.60;1.50;;;15.00;30.10;;;;;;4997902;28;20206;-61
2023/11/11 12:16:14;;;;;;;1.35;1.25;;;16.10;28.50;;;;;;5006522;28;20223;-57
2023/11/11 12:18:40;;;;;;;2.00;1.20;;;14.30;29.50;;;;;;5007709;28;20241;-56
2023/11/11 12:31:54;;;;;;;2.43;2.00;;;8.80;46.50;;;;;;5223377;23;20388;-60
2023/11/11 12:34:22;;;;;;;2.73;2.00;;;8.30;51.70;;;;;;5004749;28;20302;-56
2023/11/11 12:36:48;;;;;;;2.80;2.10;;;7.90;54.10;;;;;;5006020;28;20300;-58
2023/11/11 12:39:15;;;;;;;2.30;2.20;;;7.90;55.00;;;;;;5009178;28;20204;-57
2023/11/11 12:41:44;;;;;;;2.20;2.00;;;7.90;53.90;;;;;;5011877;28;20580;-54
2023/11/11 12:44:11;;;;;;;2.40;2.20;;;9.20;52.40;;;;;;5011351;28;20233;-57
2023/11/11 12:46:37;;;;;;;1.90;1.80;;;9.60;50.50;;;;;;5011837;28;20253;-58
2023/11/11 12:49:03;;;;;;;2.40;2.20;;;9.30;52.70;;;;;;5010818;28;20272;-59
2023/11/11 12:51:30;;;;;;;2.30;2.10;;;9.80;50.60;;;;;;5002120;28;20308;-58
2023/11/11 12:53:57;;;;;;;1.90;1.80;;;9.60;47.60;;;;;;5004887;28;20233;-58
2023/11/11 12:56:24;;;;;;;3.40;1.87;;;9.40;46.60;;;;;;5006668;28;20222;-61
2023/11/11 12:58:50;;;;;;;1.90;1.80;;;9.80;49.80;;;;;;5012127;28;20319;-58
2023/11/11 13:01:17;;;;;;;2.13;1.80;;;9.10;47.30;;;;;;5007785;28;20218;-57
2023/11/11 13:03:43;;;;;;;2.30;2.10;;;9.10;46.70;;;;;;5012723;28;20294;-60